Time;durP1;ratioP1;P1;durP2;ratioP2;P2;SDS_P1;SDS_P2;PMS_P1;PMS_P2;Temp;Humidity;BMP_temperature;BMP_pressure;BME280_temperature;BME280_humidity;BME280_pressure;Samples;Min_cycle;Max_cycle;Signal;HPM_P1;HPM_P2
2022/07/19 00:00:56;;;;;;;2.77;1.57;;;25.00;99.90;;;;;;4977583;28;20206;-96
2022/07/19 00:03:28;;;;;;;1.63;1.30;;;25.10;99.90;;;;;;4978818;28;20204;-96
2022/07/19 00:06:00;;;;;;;1.83;1.47;;;24.80;99.90;;;;;;4978314;28;20235;-94
2022/07/19 00:08:31;;;;;;;2.10;1.47;;;25.00;99.90;;;;;;4978733;28;20207;-94
2022/07/19 00:11:03;;;;;;;1.73;1.60;;;25.00;99.90;;;;;;4976042;28;20211;-94
2022/07/19 00:13:36;;;;;;;2.23;1.53;;;24.80;99.90;;;;;;4979282;28;20238;-93
2022/07/19 00:16:11;;;;;;;4.47;1.63;;;25.00;99.90;;;;;;4978564;28;20262;-96
2022/07/19 00:18:44;;;;;;;4.43;1.70;;;24.80;99.90;;;;;;4978722;28;20207;-94
2022/07/19 00:21:18;;;;;;;1.70;1.60;;;24.90;99.90;;;;;;4977926;28;20310;-94
2022/07/19 00:23:50;;;;;;;2.87;1.70;;;25.00;99.90;;;;;;4978963;28;20211;-93
2022/07/19 00:26:21;;;;;;;4.23;1.60;;;25.00;99.90;;;;;;4978051;28;20231;-94
2022/07/19 00:28:54;;;;;;;3.13;1.50;;;24.70;99.90;;;;;;4977711;28;20206;-93
2022/07/19 00:31:26;;;;;;;3.53;1.60;;;24.60;99.90;;;;;;4982123;28;20206;-94
2022/07/19 00:33:59;;;;;;;3.03;1.60;;;24.70;99.90;;;;;;4982197;28;20242;-94
2022/07/19 00:36:30;;;;;;;1.90;1.37;;;24.70;99.90;;;;;;4982593;28;20231;-93
2022/07/19 00:39:03;;;;;;;2.30;1.30;;;24.70;99.90;;;;;;4981803;28;20211;-94
2022/07/19 00:41:42;;;;;;;4.53;1.60;;;24.80;99.90;;;;;;4980748;28;20226;-95
2022/07/19 00:44:15;;;;;;;2.23;1.50;;;24.70;99.90;;;;;;4982925;28;20207;-94
2022/07/19 00:46:46;;;;;;;3.87;1.67;;;24.80;99.90;;;;;;4981750;28;20211;-94
2022/07/19 00:49:18;;;;;;;1.83;1.53;;;24.70;99.90;;;;;;4982283;28;20215;-94
2022/07/19 00:51:52;;;;;;;2.33;1.60;;;24.60;99.90;;;;;;4981727;28;20568;-94
2022/07/19 00:54:25;;;;;;;2.00;1.50;;;24.40;99.90;;;;;;4981147;28;20207;-94
2022/07/19 00:57:00;;;;;;;6.33;1.70;;;24.40;99.90;;;;;;4981443;28;20235;-95
2022/07/19 00:59:34;;;;;;;3.63;1.40;;;24.50;99.90;;;;;;4986660;28;20215;-93
2022/07/19 01:02:08;;;;;;;3.10;1.90;;;24.60;99.90;;;;;;4985374;28;20683;-93
2022/07/19 01:04:40;;;;;;;2.27;1.50;;;25.00;99.90;;;;;;4985439;28;20203;-94
2022/07/19 01:07:12;;;;;;;1.90;1.47;;;25.60;99.90;;;;;;4984808;28;20219;-95
2022/07/19 01:09:44;;;;;;;4.73;1.50;;;25.90;99.90;;;;;;4984449;28;20726;-95
2022/07/19 01:12:16;;;;;;;5.13;1.70;;;26.40;99.90;;;;;;4983181;28;20774;-95
2022/07/19 01:14:50;;;;;;;2.13;1.70;;;26.50;99.90;;;;;;4983616;28;20207;-94
2022/07/19 01:17:30;;;;;;;3.43;1.90;;;27.10;99.90;;;;;;4983997;28;20235;-94
2022/07/19 01:20:02;;;;;;;2.50;1.50;;;27.10;99.90;;;;;;4981859;28;20234;-94
2022/07/19 01:22:39;;;;;;;1.63;1.23;;;27.40;99.90;;;;;;4981911;28;20242;-95
2022/07/19 01:25:12;;;;;;;1.77;1.30;;;27.40;99.90;;;;;;4982465;28;20235;-94
2022/07/19 01:27:47;;;;;;;1.97;1.50;;;27.30;99.90;;;;;;4981916;28;20215;-94
2022/07/19 01:30:21;;;;;;;2.30;1.43;;;27.40;99.90;;;;;;4983934;28;20214;-94
2022/07/19 01:32:53;;;;;;;4.60;1.40;;;27.60;99.90;;;;;;4985118;28;20207;-94
2022/07/19 01:54:21;;;;;;;4.77;1.93;;;27.50;99.90;;;;;;5001708;28;20372;-95
2022/07/19 01:57:03;;;;;;;2.83;1.93;;;27.30;99.90;;;;;;5001370;28;20272;-95
2022/07/19 01:59:37;;;;;;;2.73;1.80;;;27.50;99.90;;;;;;5001389;28;20210;-95
2022/07/19 02:02:09;;;;;;;4.40;1.60;;;27.40;99.90;;;;;;5000817;28;20624;-95
2022/07/19 02:04:44;;;;;;;2.13;1.37;;;27.40;99.90;;;;;;5001853;28;20671;-95
2022/07/19 02:07:17;;;;;;;2.23;1.60;;;27.30;99.90;;;;;;5000127;28;20297;-95
2022/07/19 02:09:53;;;;;;;2.87;1.60;;;27.40;99.90;;;;;;5001955;28;20206;-94
2022/07/19 02:12:26;;;;;;;2.70;1.80;;;27.40;99.90;;;;;;5005551;28;20500;-96
2022/07/19 02:14:57;;;;;;;2.10;1.63;;;27.10;99.90;;;;;;5004294;28;20265;-96
2022/07/19 02:20:23;;;;;;;3.37;1.50;;;25.70;99.90;;;;;;5000637;28;20214;-96
2022/07/19 02:22:54;;;;;;;1.80;1.50;;;25.10;99.90;;;;;;5000541;28;20575;-96
2022/07/19 02:25:28;;;;;;;2.53;1.73;;;24.30;99.90;;;;;;5002797;28;20241;-96
2022/07/19 02:28:00;;;;;;;3.03;1.70;;;23.70;99.90;;;;;;5000458;28;20300;-96
2022/07/19 02:30:31;;;;;;;3.77;2.07;;;23.30;99.90;;;;;;5000389;28;20260;-96
2022/07/19 02:33:02;;;;;;;4.00;1.83;;;23.00;99.90;;;;;;5001418;28;20218;-96
2022/07/19 02:35:33;;;;;;;4.93;1.90;;;22.70;99.90;;;;;;5000802;28;20219;-96
2022/07/19 02:38:05;;;;;;;4.57;1.60;;;22.50;99.90;;;;;;5005403;28;20270;-96
2022/07/19 02:40:40;;;;;;;2.77;1.83;;;22.40;99.90;;;;;;5001709;28;20221;-96
2022/07/19 02:43:12;;;;;;;2.63;1.70;;;22.30;99.90;;;;;;5004510;28;20681;-95
2022/07/19 02:45:44;;;;;;;2.10;1.70;;;22.20;99.90;;;;;;5004233;28;20202;-96
2022/07/19 02:48:15;;;;;;;3.37;1.80;;;22.10;99.90;;;;;;5001479;28;20336;-96
2022/07/19 02:50:47;;;;;;;3.43;1.90;;;21.80;99.90;;;;;;5000492;28;20544;-96
2022/07/19 02:53:19;;;;;;;2.03;1.80;;;21.70;99.90;;;;;;4997118;28;20220;-96
2022/07/19 02:55:54;;;;;;;4.17;1.90;;;21.60;99.90;;;;;;5004014;28;20233;-96
2022/07/19 02:58:26;;;;;;;3.80;1.70;;;21.40;99.90;;;;;;5002933;28;20260;-96
2022/07/19 03:01:31;;;;;;;6.20;2.07;;;21.40;99.90;;;;;;5004075;28;20213;-96
2022/07/19 03:04:02;;;;;;;3.87;2.07;;;21.30;99.90;;;;;;5000739;28;20220;-96
2022/07/19 03:09:45;;;;;;;2.10;1.83;;;21.00;99.90;;;;;;5005316;28;20198;-96
2022/07/19 03:12:19;;;;;;;2.30;1.90;;;20.90;99.90;;;;;;5002089;28;20210;-96
2022/07/19 03:14:59;;;;;;;4.73;2.00;;;20.80;99.90;;;;;;5004211;28;20270;-96
2022/07/19 03:17:30;;;;;;;4.27;2.40;;;20.60;99.90;;;;;;5001544;28;20248;-96
2022/07/19 03:25:29;;;;;;;3.10;2.00;;;20.20;99.90;;;;;;4963786;28;20215;-96
2022/07/19 03:28:05;;;;;;;5.03;2.40;;;20.10;99.90;;;;;;4965424;29;20219;-96
2022/07/19 03:30:38;;;;;;;2.87;2.50;;;20.00;99.90;;;;;;4976259;28;20195;-96
2022/07/19 03:33:10;;;;;;;3.13;2.60;;;19.90;99.90;;;;;;4978451;28;20211;-96
2022/07/19 03:35:43;;;;;;;4.47;2.60;;;19.80;99.90;;;;;;4978749;28;20203;-95
2022/07/19 03:38:16;;;;;;;4.53;2.90;;;19.70;99.90;;;;;;4978324;28;20226;-96
2022/07/19 03:40:50;;;;;;;3.53;2.43;;;19.60;99.90;;;;;;4969797;29;20617;-95
2022/07/19 03:43:24;;;;;;;2.87;2.37;;;19.50;99.90;;;;;;4973858;28;20207;-96
2022/07/19 03:45:56;;;;;;;4.07;2.53;;;19.40;99.90;;;;;;4977083;28;20223;-96
2022/07/19 03:48:27;;;;;;;4.63;2.53;;;19.40;99.90;;;;;;4976808;28;20559;-96
2022/07/19 03:50:59;;;;;;;3.93;2.60;;;19.30;99.90;;;;;;4975627;28;20199;-96
2022/07/19 03:53:31;;;;;;;3.53;2.70;;;19.20;99.90;;;;;;4976297;28;20212;-96
2022/07/19 03:56:03;;;;;;;4.63;2.73;;;19.10;99.90;;;;;;4976563;28;20297;-96
2022/07/19 03:58:40;;;;;;;5.10;2.60;;;19.00;99.90;;;;;;4992009;28;20223;-96
2022/07/19 04:01:11;;;;;;;3.50;2.73;;;19.00;99.90;;;;;;4977704;28;20218;-96
2022/07/19 04:03:52;;;;;;;7.00;2.43;;;18.90;99.90;;;;;;4978161;28;20211;-96
2022/07/19 04:06:26;;;;;;;5.63;2.77;;;18.80;99.90;;;;;;4993007;28;20211;-96
2022/07/19 04:08:59;;;;;;;4.27;2.27;;;18.70;99.90;;;;;;4973617;28;20221;-95
2022/07/19 04:11:31;;;;;;;3.67;2.53;;;18.70;99.90;;;;;;4961036;29;20211;-95
2022/07/19 04:14:07;;;;;;;4.50;2.50;;;18.60;99.90;;;;;;4978115;28;20294;-95
2022/07/19 04:16:38;;;;;;;4.80;2.60;;;18.50;99.90;;;;;;4975736;28;20211;-95
2022/07/19 04:19:12;;;;;;;4.93;3.00;;;18.40;99.90;;;;;;4959505;29;20250;-96
2022/07/19 04:21:43;;;;;;;3.57;2.40;;;18.40;99.90;;;;;;4959063;29;20629;-95
2022/07/19 04:24:17;;;;;;;6.30;2.87;;;18.30;99.90;;;;;;4961265;29;20220;-96
2022/07/19 04:29:48;;;;;;;2.93;2.30;;;18.10;99.90;;;;;;4996792;28;20241;-96
2022/07/19 04:32:19;;;;;;;4.07;2.57;;;18.00;99.90;;;;;;5003049;28;20252;-96
2022/07/19 04:34:52;;;;;;;3.13;2.83;;;17.90;99.90;;;;;;5011327;28;20202;-96
2022/07/19 04:37:27;;;;;;;6.43;2.97;;;17.80;99.90;;;;;;5050763;23;20279;-95
2022/07/19 04:43:00;;;;;;;5.07;2.87;;;17.70;99.90;;;;;;5028622;28;20202;-96
2022/07/19 04:55:04;;;;;;;4.57;3.30;;;17.50;99.90;;;;;;5028857;28;20228;-96
2022/07/19 05:00:43;;;;;;;4.17;3.10;;;17.40;99.90;;;;;;5030246;28;20204;-96
2022/07/19 05:03:26;;;;;;;3.53;3.23;;;17.30;99.90;;;;;;5033826;28;20209;-96
2022/07/19 05:24:35;;;;;;;3.67;2.83;;;17.10;99.90;;;;;;5007790;28;20253;-96
2022/07/19 05:27:09;;;;;;;3.93;3.10;;;17.00;99.90;;;;;;5002170;28;20225;-96
2022/07/19 05:29:41;;;;;;;4.23;2.80;;;16.90;99.90;;;;;;5003624;28;20663;-95
2022/07/19 05:32:13;;;;;;;3.27;2.70;;;16.90;99.90;;;;;;4999946;28;20749;-96
2022/07/19 05:34:44;;;;;;;4.13;3.10;;;16.90;99.90;;;;;;5001587;28;20276;-94
2022/07/19 05:37:15;;;;;;;3.80;3.00;;;16.90;99.90;;;;;;5005231;28;20206;-94
2022/07/19 05:39:47;;;;;;;3.83;2.53;;;16.80;99.90;;;;;;5001998;28;20231;-94
2022/07/19 05:42:20;;;;;;;5.30;2.77;;;16.80;99.90;;;;;;4999854;28;20244;-94
2022/07/19 05:44:52;;;;;;;5.43;3.00;;;16.80;99.90;;;;;;5000087;28;20202;-95
2022/07/19 05:47:24;;;;;;;5.47;3.27;;;16.80;99.90;;;;;;4999750;28;20214;-94
2022/07/19 05:49:56;;;;;;;4.13;2.67;;;16.70;99.90;;;;;;5000216;28;20238;-96
2022/07/19 05:52:28;;;;;;;4.07;2.90;;;16.70;99.90;;;;;;4999528;28;20210;-96
2022/07/19 05:55:07;;;;;;;3.27;2.97;;;16.70;99.90;;;;;;4999508;28;20221;-94
2022/07/19 05:57:45;;;;;;;5.23;3.10;;;16.70;99.90;;;;;;4999228;28;20233;-95
2022/07/19 06:00:21;;;;;;;3.67;3.10;;;16.60;99.90;;;;;;5009476;28;20256;-94
2022/07/19 06:03:07;;;;;;;4.30;2.90;;;16.60;99.90;;;;;;5010513;28;20234;-96
2022/07/19 06:05:39;;;;;;;3.07;2.77;;;16.60;99.90;;;;;;5013683;28;20210;-95
2022/07/19 06:08:10;;;;;;;4.67;3.17;;;16.50;99.90;;;;;;5016452;28;20210;-95
2022/07/19 06:10:59;;;;;;;4.33;3.20;;;16.50;99.90;;;;;;5010775;28;20293;-95
2022/07/19 06:13:47;;;;;;;3.30;3.00;;;16.50;99.90;;;;;;5016702;28;20210;-96
2022/07/19 06:16:18;;;;;;;3.10;2.73;;;16.50;99.90;;;;;;5021714;28;20218;-96
2022/07/19 06:18:50;;;;;;;3.63;2.60;;;16.40;99.90;;;;;;5019903;28;20315;-95
2022/07/19 06:21:22;;;;;;;5.10;2.60;;;16.40;99.90;;;;;;4998678;28;20210;-96
2022/07/19 06:23:54;;;;;;;5.53;2.80;;;16.40;99.90;;;;;;5001089;28;20210;-96
2022/07/19 06:26:26;;;;;;;3.87;3.03;;;16.40;99.90;;;;;;5001213;28;20203;-96
2022/07/19 06:29:00;;;;;;;5.50;3.13;;;16.40;99.90;;;;;;5000696;28;20206;-96
2022/07/19 06:31:32;;;;;;;4.70;3.03;;;16.40;99.90;;;;;;5000688;28;20212;-96
2022/07/19 06:34:04;;;;;;;5.07;3.27;;;16.30;99.90;;;;;;4999725;28;20230;-96
2022/07/19 06:36:42;;;;;;;7.43;3.10;;;16.30;99.90;;;;;;4999472;28;20318;-96
2022/07/19 06:39:15;;;;;;;3.47;2.53;;;16.30;99.90;;;;;;5000803;28;20242;-96
2022/07/19 06:41:48;;;;;;;6.40;3.50;;;16.30;99.90;;;;;;4999845;28;20214;-96
2022/07/19 06:44:23;;;;;;;6.13;3.07;;;16.30;99.90;;;;;;4999897;28;20260;-96
2022/07/19 06:47:01;;;;;;;3.80;2.80;;;16.20;99.90;;;;;;5008809;28;20210;-95
2022/07/19 06:49:33;;;;;;;3.60;2.80;;;16.20;99.90;;;;;;5002180;28;20210;-96
2022/07/19 06:55:08;;;;;;;4.30;2.93;;;16.10;99.90;;;;;;5010524;28;20202;-96
2022/07/19 06:57:49;;;;;;;4.37;2.80;;;16.00;99.90;;;;;;5011929;28;20214;-96
2022/07/19 07:00:23;;;;;;;3.90;2.93;;;16.00;99.90;;;;;;5009928;28;20222;-96
2022/07/19 07:02:55;;;;;;;4.70;3.03;;;16.00;99.90;;;;;;5014917;28;20214;-96
2022/07/19 07:05:30;;;;;;;3.78;3.08;;;16.00;99.90;;;;;;4852111;23;10002228;-96
2022/07/19 07:08:02;;;;;;;4.10;3.20;;;16.00;99.90;;;;;;5014290;28;20399;-96
2022/07/19 07:10:33;;;;;;;4.50;2.90;;;15.90;99.90;;;;;;5007134;28;20210;-96
2022/07/19 07:13:05;;;;;;;6.90;3.67;;;15.80;99.90;;;;;;5010306;28;20210;-96
2022/07/19 07:15:51;;;;;;;6.20;3.77;;;15.80;99.90;;;;;;5012699;28;20530;-96
2022/07/19 07:21:29;;;;;;;5.93;3.90;;;15.70;99.90;;;;;;5009820;28;20571;-96
2022/07/19 07:24:23;;;;;;;5.10;3.20;;;15.60;99.90;;;;;;5008819;28;20217;-96
2022/07/19 07:29:51;;;;;;;5.63;3.17;;;15.60;99.90;;;;;;5017590;28;20212;-96
2022/07/19 07:32:37;;;;;;;4.47;3.10;;;15.50;99.90;;;;;;5017004;28;20198;-96
2022/07/19 07:35:10;;;;;;;3.97;3.03;;;15.50;99.90;;;;;;5016976;28;20238;-96
2022/07/19 07:37:42;;;;;;;5.40;3.20;;;15.50;99.90;;;;;;5017011;28;20226;-96
2022/07/19 07:40:16;;;;;;;5.03;3.00;;;15.50;99.90;;;;;;5015439;28;20230;-96
2022/07/19 07:42:48;;;;;;;4.70;3.33;;;15.50;99.90;;;;;;5016752;28;20233;-96
2022/07/19 07:45:21;;;;;;;4.27;3.13;;;15.40;99.90;;;;;;5072521;23;20275;-96
2022/07/19 07:48:03;;;;;;;4.87;3.27;;;15.40;99.90;;;;;;5030294;28;20213;-96
2022/07/19 07:50:36;;;;;;;4.70;3.13;;;15.30;99.90;;;;;;5023921;28;20245;-96
2022/07/19 07:53:08;;;;;;;5.77;3.13;;;15.30;99.90;;;;;;5025315;28;20236;-96
2022/07/19 07:55:53;;;;;;;3.97;3.23;;;15.30;99.90;;;;;;5023741;28;20205;-96
2022/07/19 07:58:28;;;;;;;3.97;2.93;;;15.30;99.90;;;;;;5028233;28;20205;-95
2022/07/19 08:01:00;;;;;;;6.80;3.53;;;15.30;99.90;;;;;;5021965;28;20275;-96
2022/07/19 08:03:36;;;;;;;5.50;3.30;;;15.20;99.90;;;;;;5024882;28;20221;-95
2022/07/19 08:06:08;;;;;;;5.73;3.70;;;15.20;99.90;;;;;;5020009;28;20627;-94
2022/07/19 08:08:40;;;;;;;3.30;2.90;;;15.20;99.90;;;;;;5019770;28;20291;-95
2022/07/19 08:11:11;;;;;;;4.20;3.33;;;15.20;99.90;;;;;;5020342;28;20548;-95
2022/07/19 08:13:43;;;;;;;4.77;3.10;;;15.20;99.90;;;;;;5022078;28;20212;-96
2022/07/19 08:16:16;;;;;;;3.57;2.93;;;15.20;99.90;;;;;;5020612;28;20273;-95
2022/07/19 08:18:53;;;;;;;4.57;3.13;;;15.20;99.90;;;;;;5019915;28;20220;-96
2022/07/19 08:21:35;;;;;;;3.43;3.13;;;15.20;99.90;;;;;;5021575;28;20329;-95
2022/07/19 08:24:08;;;;;;;5.83;3.10;;;15.20;99.90;;;;;;5020451;28;20677;-96
2022/07/19 08:26:42;;;;;;;4.90;3.60;;;15.20;99.90;;;;;;5020932;28;20220;-96
2022/07/19 08:29:15;;;;;;;3.87;2.97;;;15.10;99.90;;;;;;5022733;28;20205;-96
2022/07/19 08:32:00;;;;;;;8.53;3.43;;;15.00;99.90;;;;;;5023780;28;20224;-95
2022/07/19 08:34:34;;;;;;;7.83;3.80;;;14.90;99.90;;;;;;5017468;28;20210;-95
2022/07/19 08:37:05;;;;;;;4.70;3.40;;;14.90;99.90;;;;;;5018707;28;20210;-94
2022/07/19 08:39:37;;;;;;;4.73;3.37;;;14.90;99.90;;;;;;5018285;28;20747;-95
2022/07/19 08:42:09;;;;;;;5.30;3.23;;;14.90;99.90;;;;;;5018591;28;20260;-95
2022/07/19 08:44:42;;;;;;;5.73;3.17;;;14.80;99.90;;;;;;5019408;28;20662;-96
2022/07/19 08:47:14;;;;;;;6.13;3.47;;;14.80;99.90;;;;;;5025601;28;20210;-95
2022/07/19 08:49:48;;;;;;;4.27;3.43;;;14.80;99.90;;;;;;5035489;28;20216;-96
2022/07/19 08:52:21;;;;;;;5.50;3.03;;;14.80;99.90;;;;;;5037534;28;20205;-96
2022/07/19 08:54:54;;;;;;;4.60;3.33;;;14.80;99.90;;;;;;5040376;28;20190;-94
2022/07/19 09:00:15;;;;;;;5.93;3.60;;;14.80;99.90;;;;;;5026365;28;20291;-96
2022/07/19 09:02:57;;;;;;;4.87;3.10;;;14.80;99.90;;;;;;5022937;28;20732;-95
2022/07/19 09:05:33;;;;;;;4.63;3.10;;;14.80;99.90;;;;;;5024427;28;20285;-96
2022/07/19 09:08:11;;;;;;;6.10;3.73;;;14.80;99.90;;;;;;5026795;28;20234;-94
2022/07/19 09:11:13;;;;;;;6.87;3.70;;;14.80;99.90;;;;;;5023029;28;20315;-95
2022/07/19 09:13:38;;;;;;;6.20;3.63;;;14.70;99.90;;;;;;5021838;28;20225;-96
2022/07/19 09:16:11;;;;;;;6.23;3.33;;;14.70;99.90;;;;;;5021806;28;20217;-96
2022/07/19 09:18:43;;;;;;;6.03;3.17;;;14.70;99.90;;;;;;5024241;28;20209;-94
2022/07/19 09:21:16;;;;;;;6.43;3.40;;;14.60;99.90;;;;;;5021013;28;20253;-94
2022/07/19 09:23:50;;;;;;;4.60;3.10;;;14.60;99.90;;;;;;5021930;28;20606;-95
2022/07/19 09:26:23;;;;;;;4.63;3.40;;;14.70;99.90;;;;;;5020153;28;20300;-95
2022/07/19 09:28:55;;;;;;;5.17;3.70;;;14.60;99.90;;;;;;5019786;28;20696;-95
2022/07/19 09:31:26;;;;;;;5.57;3.53;;;14.60;99.90;;;;;;5019003;28;20228;-96
2022/07/19 09:33:58;;;;;;;3.97;3.00;;;14.50;99.90;;;;;;5020908;28;20216;-96
2022/07/19 09:36:33;;;;;;;3.60;2.97;;;14.50;99.90;;;;;;5019841;28;20256;-96
2022/07/19 09:39:05;;;;;;;4.07;3.03;;;14.50;99.90;;;;;;5021421;28;20312;-95
2022/07/19 09:41:37;;;;;;;5.70;3.80;;;14.40;99.90;;;;;;5012399;28;20285;-95
2022/07/19 09:44:10;;;;;;;3.50;2.90;;;14.40;99.90;;;;;;5000589;28;20222;-95
2022/07/19 09:46:44;;;;;;;5.50;3.40;;;14.30;99.90;;;;;;5004374;28;20218;-95
2022/07/19 09:49:19;;;;;;;5.20;3.43;;;14.40;99.90;;;;;;5001661;28;20297;-95
2022/07/19 09:51:53;;;;;;;3.87;2.77;;;14.30;99.90;;;;;;5000291;28;20220;-95
2022/07/19 09:54:26;;;;;;;5.87;3.40;;;14.30;99.90;;;;;;5000733;28;20292;-93
2022/07/19 09:56:59;;;;;;;4.80;3.40;;;14.30;99.90;;;;;;5003473;28;20541;-95
2022/07/19 09:59:31;;;;;;;7.10;3.63;;;14.20;99.90;;;;;;5000739;28;20256;-96
2022/07/19 10:02:04;;;;;;;5.27;3.50;;;14.20;99.90;;;;;;4998834;28;20715;-94
2022/07/19 10:04:36;;;;;;;6.43;3.23;;;14.20;99.90;;;;;;5000232;28;20268;-96
2022/07/19 10:07:14;;;;;;;4.93;3.77;;;14.20;99.90;;;;;;5000312;28;20276;-96
2022/07/19 10:09:47;;;;;;;6.50;3.90;;;14.10;99.90;;;;;;5000065;28;20216;-95
2022/07/19 10:12:19;;;;;;;6.17;3.50;;;14.10;99.90;;;;;;5017218;28;20271;-95
2022/07/19 10:14:52;;;;;;;4.80;3.57;;;14.00;99.90;;;;;;5018333;28;20246;-95
2022/07/19 10:17:31;;;;;;;5.67;3.97;;;14.00;99.90;;;;;;5019710;28;20648;-96
2022/07/19 10:20:05;;;;;;;7.63;3.70;;;14.00;99.90;;;;;;5019135;28;20217;-95
2022/07/19 10:22:42;;;;;;;5.90;3.80;;;14.00;99.90;;;;;;5019947;28;20273;-96
2022/07/19 10:25:17;;;;;;;5.07;3.30;;;14.00;99.90;;;;;;5021578;28;20696;-95
2022/07/19 10:27:51;;;;;;;4.57;3.10;;;14.00;99.90;;;;;;5019386;28;20540;-96
2022/07/19 10:30:26;;;;;;;5.93;3.67;;;13.90;99.90;;;;;;5018494;28;20205;-96
2022/07/19 10:32:58;;;;;;;4.77;3.60;;;13.90;99.90;;;;;;5019307;28;20741;-96
2022/07/19 10:35:31;;;;;;;5.93;3.80;;;13.90;99.90;;;;;;5017652;28;20622;-95
2022/07/19 10:38:14;;;;;;;3.67;3.23;;;13.80;99.90;;;;;;5021638;28;20206;-94
2022/07/19 10:40:47;;;;;;;4.80;3.40;;;13.80;99.90;;;;;;5017002;28;20292;-95
2022/07/19 10:43:20;;;;;;;4.00;3.30;;;13.70;99.90;;;;;;5018391;28;20288;-95
2022/07/19 10:46:13;;;;;;;6.67;3.60;;;13.70;99.90;;;;;;5018458;28;20221;-95
2022/07/19 10:48:51;;;;;;;7.00;3.50;;;13.70;99.90;;;;;;5018639;28;20635;-96
2022/07/19 10:51:34;;;;;;;4.40;3.20;;;13.70;99.90;;;;;;5017399;28;20213;-96
2022/07/19 10:54:10;;;;;;;5.43;3.93;;;13.70;99.90;;;;;;5018345;28;20205;-96
2022/07/19 10:56:43;;;;;;;4.33;3.20;;;13.60;99.90;;;;;;5017895;28;20241;-96
2022/07/19 10:59:44;;;;;;;5.77;3.20;;;13.60;99.90;;;;;;5020430;28;20288;-95
2022/07/19 11:02:35;;;;;;;5.03;3.67;;;13.60;99.90;;;;;;5017929;28;20579;-95
2022/07/19 11:05:25;;;;;;;5.70;3.20;;;13.50;99.90;;;;;;5019878;28;20220;-95
2022/07/19 11:07:58;;;;;;;4.63;3.37;;;13.50;99.90;;;;;;5022383;28;20280;-95
2022/07/19 11:10:38;;;;;;;5.10;3.50;;;13.50;99.90;;;;;;5024792;28;20221;-95
2022/07/19 11:13:11;;;;;;;5.10;3.50;;;13.50;99.90;;;;;;5021338;28;20213;-95
2022/07/19 11:15:42;;;;;;;3.93;3.50;;;13.50;99.90;;;;;;5019318;28;20218;-95
2022/07/19 11:18:21;;;;;;;5.97;3.73;;;13.40;99.90;;;;;;5021097;28;20212;-95
2022/07/19 11:20:52;;;;;;;7.10;3.93;;;13.40;99.90;;;;;;5018543;28;20214;-96
2022/07/19 11:23:24;;;;;;;4.40;3.33;;;13.40;99.90;;;;;;5022493;28;20351;-95
2022/07/19 11:26:11;;;;;;;4.27;3.57;;;13.30;99.90;;;;;;5021860;28;20202;-94
2022/07/19 11:28:45;;;;;;;4.80;4.30;;;13.20;99.90;;;;;;5021906;28;20213;-96
2022/07/19 11:31:19;;;;;;;5.97;3.60;;;13.20;99.90;;;;;;5017425;28;20259;-95
2022/07/19 11:33:56;;;;;;;5.40;3.63;;;13.20;99.90;;;;;;5020737;28;20617;-95
2022/07/19 11:36:29;;;;;;;4.57;3.37;;;13.10;99.90;;;;;;5019715;28;20304;-95
2022/07/19 11:39:03;;;;;;;4.53;3.37;;;13.00;99.90;;;;;;5017889;28;20209;-95
2022/07/19 11:41:36;;;;;;;5.07;3.70;;;13.00;99.90;;;;;;5019540;28;20237;-96
2022/07/19 11:44:08;;;;;;;4.70;3.20;;;13.00;99.90;;;;;;5026580;28;20227;-95
2022/07/19 11:46:41;;;;;;;5.13;3.63;;;13.00;99.90;;;;;;5029768;28;20214;-95
2022/07/19 11:49:15;;;;;;;4.33;3.50;;;13.00;99.90;;;;;;5028768;28;20229;-96
2022/07/19 11:51:46;;;;;;;4.10;3.70;;;13.00;99.90;;;;;;5026193;28;20209;-96
2022/07/19 11:54:19;;;;;;;4.80;3.60;;;13.00;99.90;;;;;;5031548;28;20190;-95
2022/07/19 11:57:00;;;;;;;5.23;3.90;;;12.90;99.90;;;;;;5030643;28;20218;-96
2022/07/19 11:59:38;;;;;;;4.87;4.00;;;12.90;99.90;;;;;;5034259;28;20210;-94
2022/07/19 12:02:10;;;;;;;4.63;3.60;;;12.90;99.90;;;;;;5027885;28;20260;-95
2022/07/19 12:04:41;;;;;;;6.37;3.70;;;12.90;99.90;;;;;;5018499;28;20229;-95
2022/07/19 12:07:17;;;;;;;3.63;3.33;;;12.90;99.90;;;;;;5018334;28;20224;-95
2022/07/19 12:09:49;;;;;;;5.70;3.90;;;12.80;99.90;;;;;;5017943;28;20205;-96
2022/07/19 12:12:23;;;;;;;5.17;3.80;;;12.80;99.90;;;;;;5017469;28;20213;-95
2022/07/19 12:15:09;;;;;;;6.03;3.17;;;12.80;99.90;;;;;;5018822;28;20308;-95
2022/07/19 12:17:40;;;;;;;5.37;4.00;;;12.70;99.90;;;;;;5018482;28;20209;-95
2022/07/19 12:20:14;;;;;;;6.00;3.30;;;12.80;99.90;;;;;;5019682;28;20209;-95
2022/07/19 12:23:14;;;;;;;4.73;3.03;;;12.70;99.90;;;;;;5020029;28;20771;-95
2022/07/19 12:25:45;;;;;;;5.43;3.50;;;12.80;99.90;;;;;;5037545;28;20208;-95
2022/07/19 12:28:28;;;;;;;5.00;3.53;;;12.70;99.90;;;;;;5040222;28;20212;-96
2022/07/19 12:31:04;;;;;;;4.83;3.80;;;12.70;99.90;;;;;;5037046;28;20213;-95
2022/07/19 12:33:40;;;;;;;4.90;3.60;;;12.60;99.90;;;;;;5024207;28;20237;-95
2022/07/19 12:36:12;;;;;;;3.73;3.20;;;12.60;99.90;;;;;;5025621;28;20278;-94
2022/07/19 12:38:44;;;;;;;5.17;3.63;;;12.60;99.90;;;;;;5024571;28;20240;-96
2022/07/19 12:41:17;;;;;;;4.93;3.47;;;12.60;99.90;;;;;;5020790;28;20213;-95
2022/07/19 12:43:50;;;;;;;5.67;3.97;;;12.50;99.90;;;;;;5021712;28;20223;-95
2022/07/19 12:46:28;;;;;;;5.83;3.90;;;12.60;99.90;;;;;;5021710;28;20566;-96
2022/07/19 12:48:59;;;;;;;4.93;3.40;;;12.60;99.90;;;;;;5022016;28;20217;-96
2022/07/19 12:51:31;;;;;;;4.60;3.87;;;12.60;99.90;;;;;;5020577;28;20259;-95
2022/07/19 12:54:02;;;;;;;5.43;3.40;;;12.60;99.90;;;;;;5021240;28;20224;-95
2022/07/19 12:56:34;;;;;;;6.50;3.43;;;12.60;99.90;;;;;;5021118;28;20224;-95
2022/07/19 13:01:58;;;;;;;6.37;4.00;;;12.60;99.90;;;;;;5019625;28;20233;-91
2022/07/19 13:04:32;;;;;;;4.37;3.60;;;12.60;99.90;;;;;;5020568;28;20209;-96
2022/07/19 13:07:03;;;;;;;5.53;3.33;;;12.60;99.90;;;;;;5023445;28;20233;-96
2022/07/19 13:09:36;;;;;;;6.17;3.77;;;12.50;99.90;;;;;;5020643;28;20209;-96
2022/07/19 13:12:10;;;;;;;6.80;4.40;;;12.60;99.90;;;;;;5021411;28;20666;-95
2022/07/19 13:14:46;;;;;;;6.33;4.23;;;12.60;99.90;;;;;;5022320;28;20211;-96
2022/07/19 13:17:18;;;;;;;5.80;3.73;;;12.70;99.90;;;;;;5020592;28;20213;-96
2022/07/19 13:19:50;;;;;;;6.80;4.17;;;12.70;99.90;;;;;;5018974;28;20202;-96
2022/07/19 13:22:22;;;;;;;4.77;3.83;;;12.70;99.90;;;;;;5020012;28;20291;-96
2022/07/19 13:24:54;;;;;;;5.73;4.07;;;12.70;99.90;;;;;;5020265;28;20267;-95
2022/07/19 13:27:46;;;;;;;4.87;4.20;;;12.80;99.90;;;;;;5025278;28;20241;-96
2022/07/19 13:30:19;;;;;;;6.60;4.07;;;12.80;99.90;;;;;;5020396;28;20280;-96
2022/07/19 13:32:51;;;;;;;5.57;3.60;;;12.90;99.90;;;;;;5019611;28;20209;-96
2022/07/19 13:35:24;;;;;;;4.93;3.50;;;12.90;99.90;;;;;;5020326;28;20223;-96
2022/07/19 13:37:56;;;;;;;8.33;4.10;;;12.90;99.90;;;;;;5019615;28;20221;-96
2022/07/19 13:40:31;;;;;;;6.77;4.07;;;13.00;99.90;;;;;;5021173;28;20546;-96
2022/07/19 13:43:02;;;;;;;5.90;3.40;;;13.00;99.90;;;;;;5000421;28;20361;-96
2022/07/19 13:45:36;;;;;;;6.73;4.07;;;13.10;99.90;;;;;;5000468;28;20206;-96
2022/07/19 13:48:09;;;;;;;6.67;3.23;;;13.10;99.90;;;;;;5000140;28;20252;-96
2022/07/19 13:50:41;;;;;;;8.70;4.07;;;13.20;99.90;;;;;;4999049;28;20601;-96
2022/07/19 13:53:12;;;;;;;6.70;3.80;;;13.30;99.90;;;;;;5003803;28;20584;-96
2022/07/19 13:55:44;;;;;;;6.37;4.00;;;13.30;99.90;;;;;;5001578;28;20615;-96
2022/07/19 13:58:15;;;;;;;7.00;3.67;;;13.30;99.90;;;;;;5000909;28;20277;-96
2022/07/19 14:00:49;;;;;;;6.57;3.93;;;13.40;99.90;;;;;;5004030;28;20210;-96
2022/07/19 14:03:28;;;;;;;4.30;3.47;;;13.40;99.90;;;;;;5004045;28;20233;-96
2022/07/19 14:06:02;;;;;;;7.57;4.00;;;13.40;99.90;;;;;;5018401;28;20216;-96
2022/07/19 14:08:36;;;;;;;8.00;4.10;;;13.50;99.90;;;;;;5026602;28;20217;-96
2022/07/19 14:11:20;;;;;;;6.97;3.70;;;13.50;99.90;;;;;;5021790;28;20225;-96
2022/07/19 14:13:52;;;;;;;6.23;4.10;;;13.60;99.90;;;;;;5019855;28;20301;-96
2022/07/19 14:16:26;;;;;;;6.03;3.90;;;13.60;99.90;;;;;;5019945;28;20588;-95
2022/07/19 14:18:58;;;;;;;5.50;3.87;;;13.60;99.90;;;;;;5019743;28;20577;-96
2022/07/19 14:21:33;;;;;;;5.63;4.33;;;13.70;99.90;;;;;;5019633;28;20267;-95
2022/07/19 14:24:08;;;;;;;9.27;5.10;;;13.70;99.90;;;;;;5021197;28;20229;-96
2022/07/19 14:26:40;;;;;;;6.90;4.17;;;13.80;99.90;;;;;;5026374;28;20209;-96
2022/07/19 14:29:11;;;;;;;6.03;4.10;;;13.80;99.90;;;;;;5038288;28;20234;-95
2022/07/19 14:31:45;;;;;;;5.80;4.20;;;13.80;99.90;;;;;;5036914;28;20232;-96
2022/07/19 14:34:17;;;;;;;6.43;3.83;;;13.80;99.90;;;;;;5037599;28;20208;-95
2022/07/19 14:37:06;;;;;;;6.87;4.03;;;13.90;99.90;;;;;;5037299;28;20198;-95
2022/07/19 14:39:38;;;;;;;5.20;3.83;;;13.90;99.90;;;;;;5025390;28;20229;-96
2022/07/19 14:42:10;;;;;;;7.00;4.20;;;14.00;99.90;;;;;;5023901;28;20206;-94
2022/07/19 14:44:41;;;;;;;6.30;4.37;;;14.00;99.90;;;;;;5025346;28;20244;-96